Time;durP1;ratioP1;P1;durP2;ratioP2;P2;SDS_P1;SDS_P2;PMS_P1;PMS_P2;Temp;Humidity;BMP_temperature;BMP_pressure;BME280_temperature;BME280_humidity;BME280_pressure;Samples;Min_cycle;Max_cycle;Signal;HPM_P1;HPM_P2
2022/09/14 00:01:13;;;;;;;18.40;12.03;;;;;;;20.83;93.62;99754.56;4982165;28;20218;-65
2022/09/14 00:03:55;;;;;;;15.17;11.37;;;;;;;20.83;93.14;99770.72;4986708;28;20237;-65
2022/09/14 00:06:24;;;;;;;16.50;10.13;;;;;;;20.83;92.64;99773.44;4985866;28;20214;-65
2022/09/14 00:08:53;;;;;;;20.50;11.10;;;;;;;20.83;92.82;99778.81;4986120;28;20206;-65
2022/09/14 00:11:23;;;;;;;15.67;11.20;;;;;;;20.82;92.96;99758.31;4986100;28;20217;-65
2022/09/14 00:13:51;;;;;;;18.13;10.87;;;;;;;20.76;93.29;99751.94;4986997;28;20635;-65
2022/09/14 00:16:21;;;;;;;15.80;10.50;;;;;;;20.74;93.85;99756.78;4985933;28;20234;-65
2022/09/14 00:18:56;;;;;;;15.77;9.47;;;;;;;20.70;94.22;99760.16;4987102;28;20604;-65
2022/09/14 00:21:24;;;;;;;13.43;10.70;;;;;;;20.72;93.19;99734.63;4984574;28;20281;-65
2022/09/14 00:23:52;;;;;;;14.87;10.57;;;;;;;20.69;93.45;99718.09;4988241;28;20210;-65
2022/09/14 00:26:22;;;;;;;16.37;11.17;;;;;;;20.63;95.96;99709.91;4985824;28;20214;-65
2022/09/14 00:28:50;;;;;;;17.70;11.80;;;;;;;20.52;98.35;99699.09;4987074;28;20225;-65
2022/09/14 00:31:20;;;;;;;17.47;10.53;;;;;;;20.46;98.80;99689.25;4983166;28;20214;-65
2022/09/14 00:33:49;;;;;;;18.70;11.80;;;;;;;20.41;99.82;99676.47;4985764;28;20245;-65
2022/09/14 00:36:20;;;;;;;16.67;11.70;;;;;;;20.40;99.65;99676.72;4986305;28;20590;-65
2022/09/14 00:38:48;;;;;;;18.47;12.03;;;;;;;20.42;99.48;99666.53;4983959;28;20214;-65
2022/09/14 00:41:19;;;;;;;17.20;11.63;;;;;;;20.45;99.11;99660.69;4984360;28;20664;-65
2022/09/14 00:43:58;;;;;;;23.30;13.17;;;;;;;20.50;97.45;99664.31;4983239;28;20655;-65
2022/09/14 00:46:28;;;;;;;16.77;11.77;;;;;;;20.52;97.47;99656.81;4983113;28;20553;-65
2022/09/14 00:48:59;;;;;;;20.27;13.03;;;;;;;20.47;99.23;99661.28;4982177;28;20559;-64
2022/09/14 00:51:31;;;;;;;18.50;11.57;;;;;;;20.42;100.00;99672.72;4980438;28;20202;-64
2022/09/14 00:54:01;;;;;;;13.67;10.03;;;;;;;20.45;98.97;99666.06;4987950;28;20210;-65
2022/09/14 00:56:29;;;;;;;16.50;12.00;;;;;;;20.46;98.27;99656.94;4986806;28;20230;-65
2022/09/14 00:59:02;;;;;;;17.13;12.00;;;;;;;20.49;97.41;99659.19;4990027;28;20213;-65
2022/09/14 01:01:29;;;;;;;19.30;11.47;;;;;;;20.46;98.60;99671.22;4985985;28;20273;-64
2022/09/14 01:03:57;;;;;;;17.97;11.67;;;;;;;20.40;100.00;99661.41;4990383;28;20221;-64
2022/09/14 01:06:35;;;;;;;18.37;11.07;;;;;;;20.39;99.93;99662.44;4986599;28;20218;-64
2022/09/14 01:09:28;;;;;;;14.80;10.70;;;;;;;20.40;99.17;99685.63;4987999;28;20683;-64
2022/09/14 01:12:09;;;;;;;17.77;10.60;;;;;;;20.47;97.97;99685.50;4979763;28;20280;-65
2022/09/14 01:14:44;;;;;;;19.90;11.47;;;;;;;20.47;97.75;99691.72;4987225;28;20207;-64
2022/09/14 01:17:18;;;;;;;15.17;9.53;;;;;;;20.49;97.12;99678.81;4987680;28;20232;-64
2022/09/14 01:20:09;;;;;;;15.63;10.03;;;;;;;20.52;95.96;99678.38;4987838;28;20210;-64
2022/09/14 01:22:44;;;;;;;14.87;9.73;;;;;;;20.52;95.62;99678.38;4985184;28;20206;-65
2022/09/14 01:25:28;;;;;;;18.07;11.03;;;;;;;20.53;95.32;99671.13;4987847;28;20260;-65
2022/09/14 01:28:00;;;;;;;13.53;10.33;;;;;;;20.52;95.41;99678.38;4986037;28;20202;-65
2022/09/14 01:30:31;;;;;;;17.00;10.97;;;;;;;20.53;95.37;99680.00;4984963;28;20218;-65
2022/09/14 01:33:04;;;;;;;18.07;10.57;;;;;;;20.53;95.91;99669.25;4986951;28;20246;-65
2022/09/14 01:35:37;;;;;;;18.60;11.93;;;;;;;20.48;97.04;99661.06;4986491;28;20339;-64
2022/09/14 01:38:10;;;;;;;16.67;11.50;;;;;;;20.44;97.48;99657.16;4987363;28;20647;-64
2022/09/14 01:40:41;;;;;;;18.73;11.50;;;;;;;20.41;98.43;99649.53;4990052;28;20206;-64
2022/09/14 01:43:15;;;;;;;16.17;11.07;;;;;;;20.36;99.55;99646.75;4990010;28;20210;-65
2022/09/14 01:45:47;;;;;;;18.13;11.47;;;;;;;20.36;99.87;99652.13;4986370;28;20652;-65
2022/09/14 01:48:20;;;;;;;17.20;11.27;;;;;;;20.36;100.00;99640.53;4989494;28;20218;-64
2022/09/14 01:50:53;;;;;;;16.33;11.30;;;;;;;20.40;98.93;99650.63;4988102;28;20627;-64
2022/09/14 01:53:27;;;;;;;17.23;12.17;;;;;;;20.40;99.04;99647.94;4987542;28;20303;-64
2022/09/14 01:55:59;;;;;;;20.90;13.27;;;;;;;20.42;98.60;99642.28;4988793;28;20210;-64
2022/09/14 01:58:33;;;;;;;18.70;13.07;;;;;;;20.42;99.84;99637.72;4987743;28;20848;-63
2022/09/14 02:01:04;;;;;;;21.30;14.37;;;;;;;20.36;100.00;99624.38;4986454;28;20218;-64
2022/09/14 02:03:39;;;;;;;20.93;14.03;;;;;;;20.31;100.00;99622.38;4987051;28;20257;-63
2022/09/14 02:06:13;;;;;;;22.20;13.70;;;;;;;20.24;100.00;99621.63;4984764;28;20814;-64
2022/09/14 02:08:41;;;;;;;18.73;13.47;;;;;;;20.28;100.00;99614.75;4984763;28;20259;-63
2022/09/14 02:11:09;;;;;;;19.73;13.30;;;;;;;20.30;100.00;99615.34;4990617;28;20207;-64
2022/09/14 02:13:38;;;;;;;16.87;13.13;;;;;;;20.32;100.00;99610.53;4989071;28;20206;-64
2022/09/14 02:16:06;;;;;;;23.73;14.13;;;;;;;20.31;100.00;99616.97;4985858;28;20242;-63
2022/09/14 02:18:34;;;;;;;21.27;14.77;;;;;;;20.31;100.00;99621.53;4985686;28;20280;-63
2022/09/14 02:21:06;;;;;;;23.63;14.37;;;;;;;20.34;100.00;99618.38;4985526;28;20268;-65
2022/09/14 02:23:35;;;;;;;19.97;14.47;;;;;;;20.24;100.00;99608.16;4986181;28;20210;-65
2022/09/14 02:26:03;;;;;;;22.07;15.40;;;;;;;20.19;100.00;99606.19;4986411;28;20214;-64
2022/09/14 02:28:30;;;;;;;23.27;14.80;;;;;;;20.17;100.00;99602.91;4987640;28;20284;-64
2022/09/14 02:31:11;;;;;;;21.43;15.70;;;;;;;20.13;100.00;99600.91;4982752;28;20835;-64
2022/09/14 02:33:48;;;;;;;20.47;15.10;;;;;;;20.14;100.00;99597.97;4983448;28;20252;-65
2022/09/14 02:36:22;;;;;;;22.13;15.33;;;;;;;20.16;100.00;99601.25;4986880;28;20239;-64
2022/09/14 02:38:56;;;;;;;23.63;16.10;;;;;;;20.13;100.00;99600.91;4983425;28;20244;-64
2022/09/14 02:41:33;;;;;;;21.83;14.90;;;;;;;20.07;100.00;99604.50;4985330;28;20210;-64
2022/09/14 02:44:07;;;;;;;22.00;14.97;;;;;;;20.03;100.00;99608.72;4986379;28;20288;-64
2022/09/14 02:46:43;;;;;;;23.87;15.40;;;;;;;20.06;100.00;99606.38;4985918;28;20605;-64
2022/09/14 02:49:18;;;;;;;26.33;16.00;;;;;;;20.04;100.00;99602.28;4984321;28;20664;-64
2022/09/14 02:51:52;;;;;;;23.47;15.33;;;;;;;20.06;100.00;99600.16;4984962;28;20761;-64
2022/09/14 02:54:24;;;;;;;20.27;14.37;;;;;;;20.13;100.00;99590.97;4986244;28;22421;-64
2022/09/14 02:56:52;;;;;;;23.50;15.17;;;;;;;20.17;100.00;99596.69;4983711;28;20778;-64
2022/09/14 02:59:19;;;;;;;22.73;15.60;;;;;;;20.22;100.00;99588.75;4986672;28;20206;-64
2022/09/14 03:01:48;;;;;;;24.13;15.87;;;;;;;20.22;100.00;99597.66;4986569;28;20214;-64
2022/09/14 03:04:16;;;;;;;21.03;14.80;;;;;;;20.24;100.00;99605.47;4987345;28;20210;-65
2022/09/14 03:06:44;;;;;;;24.20;15.90;;;;;;;20.28;100.00;99607.50;4987876;28;20224;-64
2022/09/14 03:09:12;;;;;;;20.53;15.40;;;;;;;20.33;100.00;99603.25;4987426;28;20269;-64
2022/09/14 03:11:39;;;;;;;23.23;15.03;;;;;;;20.39;100.00;99608.59;4986198;28;20664;-65
2022/09/14 03:14:09;;;;;;;22.03;15.50;;;;;;;20.41;100.00;99603.78;4987099;28;20214;-66
2022/09/14 03:16:37;;;;;;;22.87;15.87;;;;;;;20.45;100.00;99586.13;4982734;28;20222;-64
2022/09/14 03:19:06;;;;;;;23.77;16.80;;;;;;;20.46;100.00;99582.38;4985683;28;21544;-64
2022/09/14 03:21:34;;;;;;;27.27;18.63;;;;;;;20.48;99.74;99582.13;4985184;28;20604;-64
2022/09/14 03:24:03;;;;;;;25.83;17.13;;;;;;;20.47;100.00;99573.25;4986001;28;20217;-64
2022/09/14 03:26:35;;;;;;;23.90;18.37;;;;;;;20.36;100.00;99560.59;4987433;28;20257;-64
2022/09/14 03:29:04;;;;;;;26.40;17.60;;;;;;;20.28;100.00;99567.09;4985039;28;20207;-64
2022/09/14 03:31:32;;;;;;;25.23;17.60;;;;;;;20.24;100.00;99555.16;4981481;28;20210;-65
2022/09/14 03:34:01;;;;;;;29.80;19.13;;;;;;;20.20;100.00;99545.91;4981720;28;20616;-65
2022/09/14 03:36:31;;;;;;;32.90;19.33;;;;;;;20.21;100.00;99538.66;4984286;28;20213;-65
2022/09/14 03:39:00;;;;;;;25.03;18.73;;;;;;;20.17;100.00;99527.53;4985869;28;20243;-65
2022/09/14 03:41:30;;;;;;;24.80;17.53;;;;;;;20.17;100.00;99532.09;4985959;28;20210;-64
2022/09/14 03:43:57;;;;;;;26.87;18.20;;;;;;;20.21;100.00;99525.22;4984533;28;20237;-64
2022/09/14 03:46:26;;;;;;;23.30;17.23;;;;;;;20.25;100.00;99524.50;4983528;28;20335;-64
2022/09/14 03:48:54;;;;;;;22.50;16.40;;;;;;;20.22;100.00;99527.69;4983853;28;20285;-64
2022/09/14 03:51:23;;;;;;;24.20;16.33;;;;;;;20.29;100.00;99532.94;4984748;28;20309;-64
2022/09/14 03:53:52;;;;;;;21.33;13.93;;;;;;;20.33;100.00;99547.56;4984829;28;20219;-64
2022/09/14 03:56:22;;;;;;;23.73;15.43;;;;;;;20.37;100.00;99546.06;4980386;28;20221;-64
2022/09/14 03:58:50;;;;;;;18.47;14.17;;;;;;;20.41;100.00;99549.09;4984189;28;20225;-64
2022/09/14 04:01:20;;;;;;;23.23;15.37;;;;;;;20.45;100.00;99545.72;4985312;28;20261;-64
2022/09/14 04:03:49;;;;;;;19.77;14.47;;;;;;;20.46;100.00;99538.47;4980830;28;20246;-65
2022/09/14 04:06:18;;;;;;;20.60;14.97;;;;;;;20.47;100.00;99540.94;4983674;28;20301;-65
2022/09/14 04:08:46;;;;;;;19.57;14.83;;;;;;;20.46;100.00;99539.28;4982029;28;20623;-64
2022/09/14 04:11:18;;;;;;;22.17;16.20;;;;;;;20.45;100.00;99543.03;4982026;28;20214;-65
2022/09/14 04:13:46;;;;;;;21.17;16.03;;;;;;;20.45;100.00;99537.66;4983114;28;20702;-65
2022/09/14 04:16:15;;;;;;;22.47;15.20;;;;;;;20.46;100.00;99543.84;4986665;28;20207;-65
2022/09/14 04:18:43;;;;;;;19.73;14.37;;;;;;;20.50;99.77;99540.44;4985313;28;20289;-65
2022/09/14 04:21:15;;;;;;;19.93;15.37;;;;;;;20.51;99.38;99546.66;4984724;28;20686;-64
2022/09/14 04:23:43;;;;;;;22.20;15.53;;;;;;;20.50;99.15;99540.44;4983749;28;20655;-64
2022/09/14 04:26:32;;;;;;;19.37;15.67;;;;;;;20.48;99.84;99537.19;4982400;28;20241;-64
2022/09/14 04:29:00;;;;;;;20.30;14.63;;;;;;;20.47;100.00;99532.84;4981970;28;20233;-64
2022/09/14 04:31:28;;;;;;;17.17;13.87;;;;;;;20.46;100.00;99533.91;4984145;28;20210;-64
2022/09/14 04:33:56;;;;;;;19.30;14.60;;;;;;;20.47;99.89;99527.47;4984173;28;20715;-65
2022/09/14 04:36:27;;;;;;;16.90;13.87;;;;;;;20.48;99.76;99526.41;4976174;28;20235;-65
2022/09/14 04:38:56;;;;;;;19.07;15.60;;;;;;;20.47;100.00;99529.34;4984378;28;20232;-65
2022/09/14 04:41:24;;;;;;;17.00;13.40;;;;;;;20.43;100.00;99528.16;4984410;28;20210;-64
2022/09/14 04:43:55;;;;;;;17.87;14.07;;;;;;;20.44;100.00;99529.78;4984777;28;20210;-65
2022/09/14 04:46:24;;;;;;;21.53;14.67;;;;;;;20.43;100.00;99536.22;4984407;28;20198;-65
2022/09/14 04:48:53;;;;;;;17.50;13.87;;;;;;;20.47;100.00;99538.25;4984159;28;20198;-65
2022/09/14 04:51:22;;;;;;;17.27;13.73;;;;;;;20.45;100.00;99537.66;4988851;28;20220;-64
2022/09/14 04:53:52;;;;;;;19.93;14.33;;;;;;;20.47;100.00;99530.16;4985314;28;20206;-64
2022/09/14 04:56:21;;;;;;;15.93;13.30;;;;;;;20.48;100.00;99530.97;4984838;28;20210;-64
2022/09/14 04:58:51;;;;;;;19.10;15.20;;;;;;;20.45;100.00;99532.25;4982464;28;20293;-64
2022/09/14 05:01:21;;;;;;;20.50;15.63;;;;;;;20.43;100.00;99534.34;4984340;28;20206;-64
2022/09/14 05:03:50;;;;;;;24.90;15.57;;;;;;;20.40;100.00;99528.66;4981543;28;20245;-64
2022/09/14 05:06:20;;;;;;;21.73;15.07;;;;;;;20.39;100.00;99530.50;4985391;28;20214;-65
2022/09/14 05:08:48;;;;;;;20.23;16.30;;;;;;;20.34;100.00;99527.69;4985802;28;20257;-65
2022/09/14 05:11:18;;;;;;;21.13;16.27;;;;;;;20.29;100.00;99531.06;4984436;28;20227;-65
2022/09/14 05:13:46;;;;;;;21.13;15.50;;;;;;;20.29;100.00;99539.13;4979704;28;20222;-64
2022/09/14 05:16:19;;;;;;;19.47;14.40;;;;;;;20.28;100.00;99539.38;4982030;28;20210;-65
2022/09/14 05:18:49;;;;;;;22.17;16.07;;;;;;;20.33;100.00;99544.84;4986302;28;20261;-65
2022/09/14 05:21:18;;;;;;;20.30;14.57;;;;;;;20.37;100.00;99554.16;4982474;28;20211;-65
2022/09/14 05:23:47;;;;;;;18.83;15.33;;;;;;;20.40;100.00;99545.63;4987967;28;20214;-65
2022/09/14 05:26:15;;;;;;;23.67;15.87;;;;;;;20.41;100.00;99546.41;4984950;28;20614;-65
2022/09/14 05:28:42;;;;;;;20.43;14.83;;;;;;;20.39;100.00;99554.75;4983522;28;20202;-64
2022/09/14 05:31:11;;;;;;;22.03;16.27;;;;;;;20.41;100.00;99544.53;4982936;28;20221;-66
2022/09/14 05:33:39;;;;;;;22.37;15.90;;;;;;;20.41;100.00;99541.03;4985000;28;20741;-65
2022/09/14 05:36:09;;;;;;;21.13;15.87;;;;;;;20.39;100.00;99541.28;4984777;28;20258;-66
2022/09/14 05:38:38;;;;;;;19.80;15.23;;;;;;;20.37;100.00;99535.31;4982045;28;20237;-65
2022/09/14 05:41:08;;;;;;;20.67;15.67;;;;;;;20.39;100.00;99537.78;4987773;28;20214;-66
2022/09/14 05:43:35;;;;;;;20.23;15.30;;;;;;;20.39;100.00;99532.38;4989530;28;20206;-64
2022/09/14 05:46:04;;;;;;;20.00;15.07;;;;;;;20.36;100.00;99522.91;4985597;28;20218;-64
2022/09/14 05:48:36;;;;;;;24.50;16.70;;;;;;;20.29;100.00;99523.00;4991992;28;20206;-64
2022/09/14 05:51:06;;;;;;;23.50;16.33;;;;;;;20.18;100.00;99517.59;4988727;28;20222;-64
2022/09/14 05:53:35;;;;;;;22.10;15.80;;;;;;;20.14;100.00;99513.75;4985152;28;20202;-64
2022/09/14 05:56:04;;;;;;;21.67;16.07;;;;;;;20.19;100.00;99505.78;4985251;28;20226;-64
2022/09/14 05:58:33;;;;;;;20.53;14.87;;;;;;;20.27;100.00;99519.72;4985612;28;20729;-65
2022/09/14 06:01:07;;;;;;;20.40;15.53;;;;;;;20.28;100.00;99504.38;4987031;28;20210;-64
2022/09/14 06:03:34;;;;;;;21.83;16.17;;;;;;;20.24;100.00;99497.81;4987965;28;20210;-65
2022/09/14 06:06:03;;;;;;;22.20;16.43;;;;;;;20.15;100.00;99510.78;4986999;28;20214;-64
2022/09/14 06:08:31;;;;;;;20.40;14.63;;;;;;;20.16;100.00;99500.84;4988103;28;20201;-65
2022/09/14 06:11:04;;;;;;;20.63;15.80;;;;;;;20.16;100.00;99490.91;4988922;28;20269;-65
2022/09/14 06:13:32;;;;;;;23.57;16.03;;;;;;;20.10;100.00;99493.72;4985078;28;20221;-64
2022/09/14 06:16:04;;;;;;;19.37;14.53;;;;;;;20.09;100.00;99519.81;4989755;28;20228;-65
2022/09/14 06:18:32;;;;;;;21.30;14.73;;;;;;;20.11;100.00;99525.78;4986538;28;20261;-65
2022/09/14 06:21:01;;;;;;;20.57;15.67;;;;;;;20.21;100.00;99530.59;4985840;28;20218;-64
2022/09/14 06:23:29;;;;;;;21.67;15.00;;;;;;;20.22;100.00;99538.44;4987584;28;20210;-65
2022/09/14 06:25:59;;;;;;;20.93;14.17;;;;;;;20.25;100.00;99542.50;4985779;28;20219;-64
2022/09/14 06:28:29;;;;;;;20.07;15.47;;;;;;;20.32;100.00;99545.13;4987164;28;20628;-64
2022/09/14 06:30:57;;;;;;;19.87;14.40;;;;;;;20.32;100.00;99551.28;4988292;28;20218;-64
2022/09/14 06:33:25;;;;;;;18.83;14.27;;;;;;;20.37;100.00;99545.25;4990988;28;20296;-65
2022/09/14 06:35:57;;;;;;;18.57;14.53;;;;;;;20.39;100.00;99543.16;4990551;28;20257;-65
2022/09/14 06:38:25;;;;;;;18.60;13.83;;;;;;;20.39;100.00;99543.97;4992166;28;20218;-65
2022/09/14 06:40:54;;;;;;;18.47;13.30;;;;;;;20.42;100.00;99543.50;4990117;28;20210;-66
2022/09/14 06:43:22;;;;;;;17.40;13.10;;;;;;;20.42;100.00;99537.28;4992518;28;20876;-65
2022/09/14 06:46:00;;;;;;;18.17;13.00;;;;;;;20.43;100.00;99531.66;4987032;28;20206;-65
2022/09/14 06:48:29;;;;;;;15.43;11.90;;;;;;;20.42;100.00;99530.03;4988329;28;20256;-65
2022/09/14 06:50:57;;;;;;;19.00;13.47;;;;;;;20.46;100.00;99533.91;4985800;28;20328;-65
2022/09/14 06:53:25;;;;;;;17.30;13.60;;;;;;;20.48;100.00;99530.97;4985854;28;20210;-65
2022/09/14 06:55:52;;;;;;;15.93;12.90;;;;;;;20.49;100.00;99532.63;4986622;28;20206;-65
2022/09/14 06:58:20;;;;;;;16.53;12.63;;;;;;;20.47;100.00;99529.34;4985329;28;20206;-65
2022/09/14 07:00:48;;;;;;;17.87;12.93;;;;;;;20.46;100.00;99527.69;4985930;28;20226;-65
2022/09/14 07:03:17;;;;;;;15.50;11.30;;;;;;;20.47;100.00;99519.38;4988431;28;20297;-66
2022/09/14 07:05:44;;;;;;;16.67;12.47;;;;;;;20.43;100.00;99501.22;4983746;28;20273;-65
2022/09/14 07:08:12;;;;;;;17.38;13.55;;;;;;;20.53;100.00;99496.88;4983479;28;20522;-64
2022/09/14 07:10:41;;;;;;;17.80;12.17;;;;;;;20.47;100.00;99516.69;4979632;28;20720;-69
2022/09/14 07:13:09;;;;;;;18.13;12.73;;;;;;;20.47;100.00;99515.88;4985173;28;20312;-65
2022/09/14 07:15:37;;;;;;;19.67;13.30;;;;;;;20.52;100.00;99489.88;4985176;28;21180;-65
2022/09/14 07:18:05;;;;;;;20.10;13.30;;;;;;;20.54;100.00;99478.88;4981716;28;20218;-65
2022/09/14 07:20:34;;;;;;;17.87;14.03;;;;;;;20.56;100.00;99482.16;4985539;28;20233;-66
2022/09/14 07:23:02;;;;;;;18.93;14.17;;;;;;;20.55;100.00;99483.19;4987136;28;20221;-65
2022/09/14 07:25:30;;;;;;;17.93;13.60;;;;;;;20.54;100.00;99509.31;4983255;28;20214;-66
2022/09/14 07:27:59;;;;;;;19.67;14.97;;;;;;;20.57;100.00;99514.22;4984409;28;20206;-64
2022/09/14 07:30:27;;;;;;;23.57;15.50;;;;;;;20.58;100.00;99515.84;4974652;28;20237;-64
2022/09/14 07:32:55;;;;;;;20.73;15.20;;;;;;;20.58;100.00;99542.78;4985559;28;20242;-64
2022/09/14 07:35:23;;;;;;;22.20;15.47;;;;;;;20.59;100.00;99536.34;4986736;28;20210;-63
2022/09/14 07:37:54;;;;;;;20.80;15.27;;;;;;;20.59;100.00;99554.38;4985189;28;20210;-64
2022/09/14 07:40:22;;;;;;;20.03;14.67;;;;;;;20.60;100.00;99546.06;4988796;28;20226;-64
2022/09/14 07:42:51;;;;;;;20.23;14.30;;;;;;;20.60;100.00;99545.25;4984031;28;20308;-64
2022/09/14 07:45:24;;;;;;;22.57;15.00;;;;;;;20.59;100.00;99532.81;4984973;28;20305;-64
2022/09/14 07:47:51;;;;;;;18.50;13.97;;;;;;;20.65;100.00;99530.03;4987637;28;20210;-65
2022/09/14 07:50:19;;;;;;;17.90;12.63;;;;;;;20.64;100.00;99514.91;4988019;28;20217;-65
2022/09/14 07:52:49;;;;;;;19.97;13.57;;;;;;;20.57;100.00;99525.00;4990349;28;20217;-65
2022/09/14 07:55:18;;;;;;;16.37;11.77;;;;;;;20.54;100.00;99528.16;4992525;28;20206;-65
2022/09/14 07:57:47;;;;;;;15.40;11.20;;;;;;;20.56;100.00;99533.31;4986676;28;20590;-64
2022/09/14 08:00:23;;;;;;;14.33;10.43;;;;;;;20.61;100.00;99542.31;4984248;28;20221;-66
2022/09/14 08:02:56;;;;;;;17.20;12.53;;;;;;;20.70;100.00;99542.78;4986490;28;20226;-66
2022/09/14 08:05:24;;;;;;;14.60;11.33;;;;;;;20.76;100.00;99555.28;4976999;28;20585;-66
2022/09/14 08:07:55;;;;;;;15.57;11.57;;;;;;;20.83;100.00;99549.78;4983973;28;20289;-67
2022/09/14 08:10:25;;;;;;;15.80;11.83;;;;;;;20.83;100.00;99547.09;4982622;28;20213;-68
2022/09/14 08:12:55;;;;;;;13.20;10.27;;;;;;;20.78;100.00;99547.78;4982736;28;20206;-66
2022/09/14 08:15:23;;;;;;;15.03;11.67;;;;;;;20.79;100.00;99545.91;4977477;28;20210;-65
2022/09/14 08:17:55;;;;;;;16.30;11.97;;;;;;;20.82;100.00;99551.66;4989147;28;20751;-66
2022/09/14 08:20:23;;;;;;;15.70;11.33;;;;;;;20.79;100.00;99564.78;4984263;28;20237;-67
2022/09/14 08:22:50;;;;;;;12.67;9.77;;;;;;;20.79;100.00;99576.38;4981153;28;20233;-67
2022/09/14 08:25:18;;;;;;;16.07;10.57;;;;;;;20.79;100.00;99587.16;4983713;28;20206;-67
2022/09/14 08:27:47;;;;;;;14.33;10.50;;;;;;;20.79;100.00;99594.41;4989678;28;20209;-66
2022/09/14 08:30:15;;;;;;;16.37;11.17;;;;;;;20.82;100.00;99600.16;4983678;28;20210;-66
2022/09/14 08:32:42;;;;;;;14.00;10.67;;;;;;;20.81;100.00;99597.69;4986011;28;20242;-67
2022/09/14 08:35:10;;;;;;;12.37;10.00;;;;;;;20.82;100.00;99612.81;4984761;28;20225;-66
2022/09/14 08:37:38;;;;;;;14.83;10.23;;;;;;;20.78;100.00;99600.84;4983668;28;20210;-66
2022/09/14 08:40:07;;;;;;;13.17;9.97;;;;;;;20.78;100.00;99590.06;4980670;28;20320;-65
2022/09/14 08:42:38;;;;;;;14.73;10.77;;;;;;;20.81;100.00;99590.44;4982798;28;20210;-65
2022/09/14 08:45:08;;;;;;;14.07;10.60;;;;;;;20.83;100.00;99615.28;4981000;28;20269;-65
2022/09/14 08:47:38;;;;;;;13.80;10.03;;;;;;;20.77;100.00;99621.59;4984083;28;20217;-64
2022/09/14 08:50:13;;;;;;;12.97;9.63;;;;;;;20.75;100.00;99606.72;4976113;28;20206;-65
2022/09/14 08:52:44;;;;;;;14.03;10.43;;;;;;;20.69;100.00;99608.47;4973710;28;20205;-65
2022/09/14 08:55:23;;;;;;;16.10;10.27;;;;;;;20.65;100.00;99608.13;4982157;28;20206;-67
2022/09/14 08:57:59;;;;;;;15.83;11.27;;;;;;;20.65;100.00;99601.94;4980725;28;20214;-66
2022/09/14 09:00:37;;;;;;;16.73;10.80;;;;;;;20.64;100.00;99601.09;4983573;28;20225;-67
2022/09/14 09:03:31;;;;;;;15.37;11.57;;;;;;;20.64;100.00;99584.13;4985519;28;20213;-67
2022/09/14 09:06:06;;;;;;;15.07;11.40;;;;;;;20.67;100.00;99584.47;4985541;28;20232;-67
2022/09/14 09:08:39;;;;;;;16.40;11.97;;;;;;;20.75;100.00;99595.97;4985869;28;20202;-67
2022/09/14 09:11:13;;;;;;;14.90;11.63;;;;;;;20.78;100.00;99596.28;4985471;28;20529;-67
2022/09/14 09:13:44;;;;;;;16.40;10.80;;;;;;;20.77;100.00;99600.03;4969382;28;20202;-67
2022/09/14 09:16:17;;;;;;;15.37;10.83;;;;;;;20.82;100.00;99599.34;4988437;28;20264;-67
2022/09/14 09:18:47;;;;;;;14.27;10.67;;;;;;;20.77;100.00;99599.22;4990358;28;20578;-67
2022/09/14 09:21:17;;;;;;;15.27;11.03;;;;;;;20.79;100.00;99594.41;4987953;28;20325;-67
2022/09/14 09:23:45;;;;;;;16.90;11.70;;;;;;;20.80;100.00;99593.38;4988879;28;20647;-67
2022/09/14 09:26:19;;;;;;;16.13;11.77;;;;;;;20.77;100.00;99593.81;4991595;28;20229;-67
2022/09/14 09:28:49;;;;;;;17.17;12.47;;;;;;;20.76;100.00;99595.69;4990005;28;21190;-65
2022/09/14 09:31:22;;;;;;;15.60;11.30;;;;;;;20.74;100.00;99588.94;4985672;28;20210;-68
2022/09/14 09:33:50;;;;;;;15.10;11.03;;;;;;;20.77;100.00;99578.47;4990810;28;20329;-68
2022/09/14 09:36:18;;;;;;;14.33;11.23;;;;;;;20.78;100.00;99595.47;4992011;28;20229;-68
2022/09/14 09:38:46;;;;;;;17.07;11.53;;;;;;;20.75;100.00;99587.88;4991937;28;20206;-68
2022/09/14 09:41:19;;;;;;;14.93;11.03;;;;;;;20.77;100.00;99574.97;4986979;28;20226;-67
2022/09/14 09:43:59;;;;;;;16.20;12.20;;;;;;;20.79;100.00;99562.09;4992003;28;20210;-67
2022/09/14 09:46:30;;;;;;;17.67;12.43;;;;;;;20.80;100.00;99550.25;4988816;28;20244;-67
2022/09/14 09:49:01;;;;;;;16.87;12.20;;;;;;;20.85;100.00;99547.66;4989501;28;20206;-67
2022/09/14 09:51:31;;;;;;;16.17;12.53;;;;;;;20.96;100.00;99533.34;4989168;28;20214;-67
2022/09/14 09:54:05;;;;;;;20.43;13.43;;;;;;;21.06;100.00;99520.09;4988479;28;20285;-68
2022/09/14 09:56:37;;;;;;;19.10;11.73;;;;;;;21.22;100.00;99522.06;4990690;28;20222;-66
2022/09/14 09:59:23;;;;;;;18.40;13.10;;;;;;;21.53;100.00;99525.34;4990513;28;20591;-67
2022/09/14 10:01:54;;;;;;;18.93;11.73;;;;;;;21.72;100.00;99521.38;4988457;28;20218;-67
2022/09/14 10:04:26;;;;;;;16.30;11.10;;;;;;;21.82;100.00;99529.63;4988718;28;20854;-67
2022/09/14 10:06:56;;;;;;;15.60;10.43;;;;;;;21.98;100.00;99520.75;4989938;28;20207;-69
2022/09/14 10:09:27;;;;;;;15.63;10.57;;;;;;;22.24;98.44;99513.06;4990739;28;20214;-68
2022/09/14 10:12:00;;;;;;;12.67;9.63;;;;;;;22.25;97.99;99507.41;4990907;28;20206;-67
2022/09/14 10:14:31;;;;;;;11.67;8.00;;;;;;;22.23;96.79;99511.44;4986910;28;20678;-67
2022/09/14 10:17:16;;;;;;;14.33;9.60;;;;;;;22.22;95.99;99507.09;4987303;28;20209;-68
2022/09/14 10:19:47;;;;;;;14.10;10.30;;;;;;;22.24;97.30;99508.47;4984707;28;20209;-68
2022/09/14 10:22:18;;;;;;;15.60;11.03;;;;;;;22.23;96.26;99500.63;4984451;28;20234;-66
2022/09/14 10:24:54;;;;;;;15.63;12.40;;;;;;;22.43;97.74;99500.91;4987271;28;20208;-65
2022/09/14 10:27:38;;;;;;;15.67;11.20;;;;;;;22.63;96.05;99495.78;4986067;28;20209;-65
2022/09/14 10:30:12;;;;;;;16.33;11.05;;;;;;;22.80;95.96;99496.56;4983694;28;20348;-64
2022/09/14 10:32:45;;;;;;;20.23;12.10;;;;;;;22.77;95.52;99497.09;4986593;28;20611;-63
2022/09/14 10:35:14;;;;;;;15.55;10.05;;;;;;;22.85;95.98;99474.22;4988910;28;20206;-65
2022/09/14 10:37:55;;;;;;;13.55;9.48;;;;;;;22.97;94.33;99479.47;4984447;28;20215;-67
2022/09/14 10:40:31;;;;;;;12.77;9.65;;;;;;;23.42;94.20;99476.44;4982720;28;20344;-67
2022/09/14 10:43:11;;;;;;;13.10;9.60;;;;;;;23.78;90.38;99458.66;4987412;28;20300;-66
2022/09/14 10:45:41;;;;;;;11.75;9.50;;;;;;;24.56;85.35;99462.44;4988083;28;20271;-65
2022/09/14 10:48:37;;;;;;;12.88;9.32;;;;;;;24.44;83.80;99456.44;4984414;28;20669;-63
2022/09/14 10:51:18;;;;;;;13.48;9.10;;;;;;;24.07;86.87;99440.19;4984195;28;20207;-64
2022/09/14 10:53:55;;;;;;;11.77;8.52;;;;;;;24.01;87.86;99437.44;4985807;28;20210;-62
2022/09/14 10:56:33;;;;;;;13.15;9.05;;;;;;;23.91;88.45;99436.59;4985764;28;20677;-63
2022/09/14 10:59:25;;;;;;;11.77;8.40;;;;;;;23.79;88.53;99444.06;4990242;28;20313;-62
2022/09/14 11:02:13;;;;;;;12.38;8.10;;;;;;;23.86;90.05;99433.81;4987946;28;20222;-61
2022/09/14 11:04:57;;;;;;;13.77;8.45;;;;;;;24.07;88.24;99424.78;4987253;28;20691;-63
2022/09/14 11:07:34;;;;;;;12.45;9.02;;;;;;;24.16;87.26;99423.22;4988174;28;20206;-63
2022/09/14 11:10:15;;;;;;;11.55;7.90;;;;;;;24.24;87.14;99428.16;4987583;28;20214;-64
2022/09/14 11:12:50;;;;;;;10.00;7.72;;;;;;;24.25;86.45;99423.56;4988399;28;20685;-62
2022/09/14 11:15:23;;;;;;;10.18;7.43;;;;;;;24.24;86.98;99420.03;4987048;28;20209;-64
2022/09/14 11:18:08;;;;;;;14.45;8.38;;;;;;;24.25;86.54;99418.13;4986972;28;20210;-63
2022/09/14 11:20:47;;;;;;;13.15;7.93;;;;;;;24.08;87.57;99414.75;4985802;28;20269;-65
2022/09/14 11:23:30;;;;;;;12.48;8.40;;;;;;;24.06;88.64;99411.50;4987046;28;20214;-65
2022/09/14 11:26:03;;;;;;;15.93;8.23;;;;;;;24.17;88.42;99410.47;4983309;28;20225;-64
2022/09/14 11:28:37;;;;;;;12.20;7.88;;;;;;;24.26;88.36;99401.63;4981567;28;20249;-64
2022/09/14 11:31:11;;;;;;;10.25;7.20;;;;;;;24.27;88.42;99407.88;4981893;28;20217;-67